Time;durP1;ratioP1;P1;durP2;ratioP2;P2;SDS_P1;SDS_P2;PMS_P1;PMS_P2;Temp;Humidity;BMP_temperature;BMP_pressure;BME280_temperature;BME280_humidity;BME280_pressure;Samples;Min_cycle;Max_cycle;Signal;HPM_P1;HPM_P2
2022/01/13 00:01:17;;;;;;;3.75;3.45;;;;;;;;;;5002167;28;20687;-57
2022/01/13 00:03:43;;;;;;;5.28;3.55;;;;;;;;;;5009826;28;20187;-57
2022/01/13 00:06:08;;;;;;;4.00;3.67;;;;;;;;;;5006333;28;20583;-57
2022/01/13 00:08:33;;;;;;;4.35;3.95;;;;;;;;;;5004430;28;20249;-57
2022/01/13 00:10:59;;;;;;;4.25;3.45;;;;;;;;;;5001235;28;20565;-57
2022/01/13 00:13:31;;;;;;;3.53;3.15;;;;;;;;;;5002955;28;20215;-57
2022/01/13 00:16:25;;;;;;;10.55;6.95;;;;;;;;;;4999388;28;20289;-57
2022/01/13 00:18:50;;;;;;;8.48;4.72;;;;;;;;;;5000759;28;20183;-57
2022/01/13 00:21:30;;;;;;;3.83;3.50;;;;;;;;;;5007458;28;20262;-57
2022/01/13 00:23:59;;;;;;;4.95;4.05;;;;;;;;;;4995933;28;20193;-57
2022/01/13 00:26:26;;;;;;;4.20;3.53;;;;;;;;;;4999886;28;20191;-57
2022/01/13 00:28:53;;;;;;;8.18;5.18;;;;;;;;;;5001883;28;21149;-57
2022/01/13 00:31:27;;;;;;;6.10;4.18;;;;;;;;;;5005837;28;20187;-57
2022/01/13 00:33:54;;;;;;;5.65;4.50;;;;;;;;;;4999332;28;20191;-57
2022/01/13 00:36:23;;;;;;;5.13;4.65;;;;;;;;;;5001211;28;20190;-57
2022/01/13 00:38:49;;;;;;;5.93;4.57;;;;;;;;;;4999410;28;20236;-57
2022/01/13 00:41:14;;;;;;;4.88;3.80;;;;;;;;;;5002505;28;20723;-58
2022/01/13 00:43:41;;;;;;;3.80;3.40;;;;;;;;;;5004665;28;20632;-57
2022/01/13 00:46:07;;;;;;;4.10;3.70;;;;;;;;;;5009731;28;20187;-57
2022/01/13 00:48:32;;;;;;;3.83;3.50;;;;;;;;;;4994085;28;20660;-57
2022/01/13 00:50:58;;;;;;;19.08;13.48;;;;;;;;;;4998066;28;20254;-57
2022/01/13 00:53:23;;;;;;;5.72;4.68;;;;;;;;;;4993347;28;20203;-57
2022/01/13 00:55:57;;;;;;;4.03;3.58;;;;;;;;;;5002051;28;20194;-57
2022/01/13 00:58:23;;;;;;;4.18;3.80;;;;;;;;;;4997771;28;20183;-57
2022/01/13 01:00:49;;;;;;;4.78;3.78;;;;;;;;;;4999291;28;20198;-57
2022/01/13 01:03:14;;;;;;;4.20;3.85;;;;;;;;;;4999416;28;20184;-57
2022/01/13 01:05:39;;;;;;;3.95;3.60;;;;;;;;;;5001603;28;20771;-57
2022/01/13 01:08:05;;;;;;;4.05;3.63;;;;;;;;;;4997753;28;20653;-57
2022/01/13 01:10:31;;;;;;;4.13;3.72;;;;;;;;;;5003489;28;20275;-57
2022/01/13 01:12:56;;;;;;;4.60;3.60;;;;;;;;;;4999855;28;20204;-57
2022/01/13 01:15:22;;;;;;;4.47;4.05;;;;;;;;;;5004853;28;20191;-57
2022/01/13 01:17:54;;;;;;;5.63;4.60;;;;;;;;;;4990336;28;20187;-57
2022/01/13 01:20:20;;;;;;;4.10;3.67;;;;;;;;;;4998562;28;20168;-58
2022/01/13 01:25:33;;;;;;;4.00;3.63;;;;;;;;;;5002928;28;20179;-58
2022/01/13 01:28:00;;;;;;;3.80;3.40;;;;;;;;;;4993862;28;20182;-57
2022/01/13 01:32:51;;;;;;;5.00;4.10;;;;;;;;;;4999787;28;20208;-57
2022/01/13 01:35:18;;;;;;;5.03;3.67;;;;;;;;;;4991204;28;20546;-57
2022/01/13 01:37:43;;;;;;;4.18;3.35;;;;;;;;;;4998403;28;20631;-57
2022/01/13 01:40:10;;;;;;;3.50;3.20;;;;;;;;;;4977915;28;20246;-58
2022/01/13 01:42:35;;;;;;;4.43;3.30;;;;;;;;;;4998260;28;20193;-57
2022/01/13 01:45:01;;;;;;;4.47;4.07;;;;;;;;;;5000084;28;20182;-57
2022/01/13 01:47:28;;;;;;;4.22;3.60;;;;;;;;;;4999375;28;20245;-57
2022/01/13 01:49:56;;;;;;;4.40;4.00;;;;;;;;;;5001606;28;20377;-57
2022/01/13 01:52:22;;;;;;;4.18;3.80;;;;;;;;;;5007163;28;20191;-57
2022/01/13 01:54:48;;;;;;;5.13;4.70;;;;;;;;;;4999170;28;20209;-57
2022/01/13 01:57:14;;;;;;;5.00;4.00;;;;;;;;;;5004796;28;20297;-57
2022/01/13 01:59:41;;;;;;;4.00;3.65;;;;;;;;;;4998873;28;20233;-57
2022/01/13 02:02:07;;;;;;;4.53;3.65;;;;;;;;;;4997126;28;20175;-56
2022/01/13 02:04:33;;;;;;;4.88;3.85;;;;;;;;;;4998793;28;20182;-56
2022/01/13 02:07:04;;;;;;;4.43;3.95;;;;;;;;;;5000084;28;20669;-56
2022/01/13 02:09:29;;;;;;;4.07;3.78;;;;;;;;;;4998504;28;20266;-57
2022/01/13 02:11:58;;;;;;;6.03;4.53;;;;;;;;;;4989566;28;20632;-57
2022/01/13 02:17:21;;;;;;;5.43;4.85;;;;;;;;;;4994626;28;20171;-56
2022/01/13 02:19:46;;;;;;;6.05;4.75;;;;;;;;;;4996181;28;20203;-57
2022/01/13 02:22:12;;;;;;;6.63;5.00;;;;;;;;;;4996500;28;20706;-56
2022/01/13 02:24:37;;;;;;;5.35;4.85;;;;;;;;;;4998116;28;20810;-57
2022/01/13 02:27:04;;;;;;;6.57;4.82;;;;;;;;;;5001998;28;20244;-57
2022/01/13 02:29:29;;;;;;;4.60;4.05;;;;;;;;;;5018296;28;20184;-56
2022/01/13 02:31:55;;;;;;;5.03;4.50;;;;;;;;;;4999265;28;20176;-57
2022/01/13 02:34:20;;;;;;;5.97;4.80;;;;;;;;;;5003706;28;20305;-57
2022/01/13 02:36:48;;;;;;;5.00;4.50;;;;;;;;;;4993136;28;20187;-57
2022/01/13 02:39:13;;;;;;;5.40;4.40;;;;;;;;;;4990589;28;20215;-57
2022/01/13 02:41:39;;;;;;;5.32;4.75;;;;;;;;;;4999571;28;20225;-56
2022/01/13 02:44:13;;;;;;;5.57;4.93;;;;;;;;;;4996722;28;20185;-57
2022/01/13 02:49:08;;;;;;;4.95;4.45;;;;;;;;;;4998116;28;20285;-57
2022/01/13 02:51:33;;;;;;;4.47;4.07;;;;;;;;;;4991008;28;20186;-57
2022/01/13 02:53:59;;;;;;;4.15;3.70;;;;;;;;;;4990026;28;20215;-57
2022/01/13 02:56:25;;;;;;;3.97;3.58;;;;;;;;;;4997002;28;20175;-56
2022/01/13 02:58:50;;;;;;;4.32;3.80;;;;;;;;;;4990703;28;20183;-56
2022/01/13 03:01:16;;;;;;;4.38;3.97;;;;;;;;;;4992004;28;20183;-56
2022/01/13 03:03:42;;;;;;;4.20;3.80;;;;;;;;;;4994066;28;20711;-57
2022/01/13 03:06:09;;;;;;;3.97;3.63;;;;;;;;;;4996757;28;20230;-57
2022/01/13 03:08:35;;;;;;;4.80;4.13;;;;;;;;;;4998527;28;20189;-57
2022/01/13 03:11:00;;;;;;;4.75;4.05;;;;;;;;;;4996121;28;20203;-57
2022/01/13 03:13:28;;;;;;;4.80;3.92;;;;;;;;;;4995351;28;20323;-57
2022/01/13 03:15:53;;;;;;;3.88;3.58;;;;;;;;;;5003067;28;20270;-57
2022/01/13 03:18:19;;;;;;;3.28;3.05;;;;;;;;;;4997838;28;20314;-57
2022/01/13 03:20:44;;;;;;;5.20;3.92;;;;;;;;;;4997905;28;20277;-56
2022/01/13 03:23:10;;;;;;;4.32;3.95;;;;;;;;;;4991075;28;20175;-57
2022/01/13 03:25:35;;;;;;;4.43;3.78;;;;;;;;;;4995513;28;20214;-57
2022/01/13 03:28:07;;;;;;;3.78;3.47;;;;;;;;;;4997328;28;20276;-57
2022/01/13 03:30:32;;;;;;;3.72;3.33;;;;;;;;;;5001732;28;20190;-57
2022/01/13 03:32:57;;;;;;;3.95;3.40;;;;;;;;;;4994341;28;20257;-57
2022/01/13 03:35:23;;;;;;;3.70;3.40;;;;;;;;;;4992263;28;20664;-57
2022/01/13 03:37:48;;;;;;;4.40;3.70;;;;;;;;;;4992550;28;20219;-58
2022/01/13 03:40:13;;;;;;;4.35;3.58;;;;;;;;;;4999940;28;20214;-57
2022/01/13 03:42:39;;;;;;;5.15;4.65;;;;;;;;;;4996278;28;20190;-57
2022/01/13 03:45:05;;;;;;;6.57;5.47;;;;;;;;;;4995888;28;20191;-57
2022/01/13 03:47:30;;;;;;;4.50;4.10;;;;;;;;;;4996207;28;20183;-57
2022/01/13 03:49:55;;;;;;;4.35;3.95;;;;;;;;;;4997979;28;20199;-57
2022/01/13 03:52:23;;;;;;;3.72;3.40;;;;;;;;;;5002252;28;20187;-57
2022/01/13 03:55:07;;;;;;;4.30;3.90;;;;;;;;;;5000260;28;20226;-57
2022/01/13 03:57:51;;;;;;;3.78;3.35;;;;;;;;;;4995482;28;20183;-56
2022/01/13 04:00:40;;;;;;;4.50;4.10;;;;;;;;;;5005137;28;20656;-57
2022/01/13 04:03:05;;;;;;;4.70;4.30;;;;;;;;;;4997686;28;20649;-57
2022/01/13 04:05:31;;;;;;;3.75;3.30;;;;;;;;;;4994857;28;20207;-58
2022/01/13 04:07:56;;;;;;;3.28;3.08;;;;;;;;;;4979790;28;20211;-57
2022/01/13 04:10:40;;;;;;;4.95;3.85;;;;;;;;;;4981521;28;20184;-57
2022/01/13 04:13:11;;;;;;;4.45;4.05;;;;;;;;;;5003957;28;20287;-57
2022/01/13 04:15:46;;;;;;;4.18;3.60;;;;;;;;;;5009987;28;20171;-57
2022/01/13 04:18:11;;;;;;;5.38;4.07;;;;;;;;;;5003124;28;20170;-57
2022/01/13 04:20:36;;;;;;;4.38;3.97;;;;;;;;;;5001973;28;20308;-57
2022/01/13 04:23:01;;;;;;;4.22;3.65;;;;;;;;;;5001904;28;20183;-57
2022/01/13 04:25:27;;;;;;;3.85;3.15;;;;;;;;;;4996932;28;20679;-57
2022/01/13 04:28:00;;;;;;;4.97;3.63;;;;;;;;;;4982201;28;20183;-57
2022/01/13 04:30:35;;;;;;;4.07;3.72;;;;;;;;;;4999664;28;20175;-57
2022/01/13 04:33:00;;;;;;;5.18;4.13;;;;;;;;;;5002060;28;20294;-57
2022/01/13 04:35:25;;;;;;;4.72;3.97;;;;;;;;;;4994467;28;20295;-57
2022/01/13 04:37:51;;;;;;;4.07;3.63;;;;;;;;;;4999095;28;20242;-57
2022/01/13 04:40:16;;;;;;;4.03;3.63;;;;;;;;;;5003782;28;20718;-57
2022/01/13 04:42:43;;;;;;;4.88;4.38;;;;;;;;;;4995330;28;20198;-56
2022/01/13 04:45:09;;;;;;;6.25;3.95;;;;;;;;;;4997360;28;20214;-57
2022/01/13 04:47:34;;;;;;;5.03;4.25;;;;;;;;;;4991903;28;20211;-57
2022/01/13 04:49:59;;;;;;;3.97;3.60;;;;;;;;;;4978829;28;20203;-56
2022/01/13 04:52:25;;;;;;;4.05;3.50;;;;;;;;;;4980509;28;20587;-56
2022/01/13 04:54:50;;;;;;;5.32;3.70;;;;;;;;;;4993180;28;20296;-56
2022/01/13 04:57:17;;;;;;;5.38;3.53;;;;;;;;;;4995283;28;20200;-57
2022/01/13 04:59:42;;;;;;;6.30;4.00;;;;;;;;;;4987655;28;20740;-57
2022/01/13 05:02:08;;;;;;;9.55;5.50;;;;;;;;;;4990216;28;20269;-56
2022/01/13 05:04:33;;;;;;;6.00;4.63;;;;;;;;;;4998100;28;20320;-57
2022/01/13 05:06:58;;;;;;;5.93;4.38;;;;;;;;;;4989623;28;20241;-57
2022/01/13 05:09:24;;;;;;;6.68;4.90;;;;;;;;;;4985858;28;20682;-57
2022/01/13 05:11:49;;;;;;;5.75;4.75;;;;;;;;;;4979040;28;20337;-57
2022/01/13 05:14:14;;;;;;;5.47;4.95;;;;;;;;;;4980535;28;20592;-57
2022/01/13 05:17:02;;;;;;;6.28;5.10;;;;;;;;;;4995631;28;20724;-57
2022/01/13 05:19:37;;;;;;;7.15;5.13;;;;;;;;;;4996360;28;20256;-57
2022/01/13 05:22:15;;;;;;;10.02;5.30;;;;;;;;;;4991553;28;20198;-57
2022/01/13 05:24:41;;;;;;;6.80;6.07;;;;;;;;;;4994525;28;20168;-57
2022/01/13 05:27:06;;;;;;;9.68;6.20;;;;;;;;;;5001310;28;20241;-57
2022/01/13 05:29:31;;;;;;;8.65;6.22;;;;;;;;;;4999013;28;20637;-57
2022/01/13 05:31:57;;;;;;;10.68;7.82;;;;;;;;;;4977680;28;20183;-57
2022/01/13 05:34:22;;;;;;;11.30;7.60;;;;;;;;;;4979794;28;20584;-56
2022/01/13 05:36:47;;;;;;;13.50;8.30;;;;;;;;;;4985366;28;20183;-57
2022/01/13 05:39:12;;;;;;;12.55;8.65;;;;;;;;;;4992611;28;20176;-57
2022/01/13 05:41:38;;;;;;;11.27;7.45;;;;;;;;;;5004218;28;20572;-58
2022/01/13 05:44:03;;;;;;;14.27;8.70;;;;;;;;;;4998170;28;20211;-57
2022/01/13 05:46:28;;;;;;;23.70;14.65;;;;;;;;;;5001477;28;20629;-57
2022/01/13 05:48:54;;;;;;;21.20;12.98;;;;;;;;;;5005557;28;20716;-57
2022/01/13 05:51:19;;;;;;;14.63;9.50;;;;;;;;;;4996401;28;20280;-57
2022/01/13 05:53:46;;;;;;;12.52;9.02;;;;;;;;;;4997426;28;20286;-58
2022/01/13 05:56:12;;;;;;;12.85;9.02;;;;;;;;;;4999384;28;20174;-57
2022/01/13 05:58:37;;;;;;;19.20;12.23;;;;;;;;;;5000098;28;20194;-57
2022/01/13 06:01:02;;;;;;;13.77;7.90;;;;;;;;;;4992592;28;20182;-57
2022/01/13 06:03:27;;;;;;;4.45;4.03;;;;;;;;;;5004277;28;20222;-56
2022/01/13 06:05:53;;;;;;;5.40;4.07;;;;;;;;;;4997997;28;20605;-57
2022/01/13 06:08:18;;;;;;;5.30;3.95;;;;;;;;;;4993459;28;20179;-57
2022/01/13 06:10:46;;;;;;;4.30;3.80;;;;;;;;;;4994437;28;20545;-56
2022/01/13 06:13:11;;;;;;;3.95;3.65;;;;;;;;;;4996095;28;20270;-57
2022/01/13 06:15:37;;;;;;;4.18;3.67;;;;;;;;;;4997594;28;20186;-57
2022/01/13 06:18:03;;;;;;;4.60;4.20;;;;;;;;;;5001224;28;20194;-57
2022/01/13 06:20:28;;;;;;;4.78;4.30;;;;;;;;;;4999998;28;20648;-57
2022/01/13 06:22:53;;;;;;;3.63;3.28;;;;;;;;;;5000167;28;20278;-57
2022/01/13 06:25:19;;;;;;;4.05;3.20;;;;;;;;;;4996502;28;20730;-56
2022/01/13 06:27:45;;;;;;;4.55;3.38;;;;;;;;;;5001200;28;20726;-56
2022/01/13 06:30:14;;;;;;;4.35;3.75;;;;;;;;;;4997817;28;20187;-56
2022/01/13 06:32:39;;;;;;;3.92;3.60;;;;;;;;;;4995839;28;20201;-57
2022/01/13 06:35:04;;;;;;;5.30;3.55;;;;;;;;;;4977064;28;20184;-56
2022/01/13 06:37:30;;;;;;;3.85;3.33;;;;;;;;;;4997577;28;20171;-57
2022/01/13 06:39:55;;;;;;;3.72;3.35;;;;;;;;;;5001589;28;20190;-57
2022/01/13 06:42:20;;;;;;;5.60;4.13;;;;;;;;;;4998687;28;20665;-57
2022/01/13 06:44:46;;;;;;;4.75;4.35;;;;;;;;;;5004772;28;20258;-57
2022/01/13 06:47:11;;;;;;;8.90;5.80;;;;;;;;;;4989812;28;20180;-56
2022/01/13 06:49:38;;;;;;;4.32;3.45;;;;;;;;;;5007112;28;20273;-57
2022/01/13 06:52:03;;;;;;;6.65;4.32;;;;;;;;;;4988714;28;20564;-57
2022/01/13 06:54:28;;;;;;;5.45;4.20;;;;;;;;;;4984140;28;20219;-57
2022/01/13 06:56:54;;;;;;;11.80;6.97;;;;;;;;;;4977032;28;20838;-57
2022/01/13 06:59:19;;;;;;;9.25;6.05;;;;;;;;;;4978707;28;20191;-57
2022/01/13 07:01:45;;;;;;;9.45;6.88;;;;;;;;;;4990355;28;20221;-57
2022/01/13 07:04:13;;;;;;;30.30;16.83;;;;;;;;;;4999054;28;20230;-57
2022/01/13 07:06:39;;;;;;;25.67;18.38;;;;;;;;;;4996006;28;20267;-57
2022/01/13 07:09:06;;;;;;;34.00;20.30;;;;;;;;;;5000378;28;20185;-58
2022/01/13 07:11:31;;;;;;;33.83;20.98;;;;;;;;;;4994427;28;20784;-58
2022/01/13 07:13:57;;;;;;;32.40;19.90;;;;;;;;;;4989798;28;20200;-58
2022/01/13 07:16:22;;;;;;;58.72;31.70;;;;;;;;;;4999024;28;20206;-57
2022/01/13 07:18:47;;;;;;;38.40;21.55;;;;;;;;;;4996953;28;20179;-58
2022/01/13 07:21:15;;;;;;;23.83;15.18;;;;;;;;;;5000120;28;20186;-57
2022/01/13 07:23:40;;;;;;;22.02;15.15;;;;;;;;;;4998815;28;20210;-58
2022/01/13 07:26:06;;;;;;;21.17;13.30;;;;;;;;;;4993105;28;20712;-57
2022/01/13 07:28:31;;;;;;;21.20;14.43;;;;;;;;;;4989287;28;20245;-58
2022/01/13 07:30:57;;;;;;;12.63;8.05;;;;;;;;;;4992038;28;20184;-57
2022/01/13 07:33:23;;;;;;;8.85;5.90;;;;;;;;;;4990728;28;20700;-58
2022/01/13 07:35:48;;;;;;;12.90;6.97;;;;;;;;;;5005813;28;20183;-57
2022/01/13 07:38:13;;;;;;;11.93;7.85;;;;;;;;;;4999312;28;20805;-57
2022/01/13 07:40:39;;;;;;;14.30;8.80;;;;;;;;;;5001039;28;20908;-58
2022/01/13 07:43:04;;;;;;;8.25;7.32;;;;;;;;;;5004072;28;20227;-58
2022/01/13 07:45:29;;;;;;;6.90;5.63;;;;;;;;;;5007867;28;20313;-58
2022/01/13 07:47:54;;;;;;;11.82;6.43;;;;;;;;;;4998126;28;20190;-58
2022/01/13 07:50:20;;;;;;;7.93;6.90;;;;;;;;;;5001852;28;20203;-57
2022/01/13 07:52:45;;;;;;;10.32;7.57;;;;;;;;;;4996962;28;20270;-57
2022/01/13 07:55:11;;;;;;;9.25;6.55;;;;;;;;;;4990973;28;20263;-57
2022/01/13 07:57:36;;;;;;;11.18;6.75;;;;;;;;;;4990988;28;20278;-58
2022/01/13 08:00:04;;;;;;;9.43;6.20;;;;;;;;;;4979923;28;20179;-57
2022/01/13 08:02:29;;;;;;;11.63;6.68;;;;;;;;;;5000753;28;20210;-57
2022/01/13 08:04:54;;;;;;;7.47;5.75;;;;;;;;;;5005082;28;20207;-56
2022/01/13 08:07:20;;;;;;;9.40;5.82;;;;;;;;;;4995641;28;21139;-56
2022/01/13 08:09:45;;;;;;;14.07;7.72;;;;;;;;;;4997377;28;20671;-57
2022/01/13 08:12:10;;;;;;;16.42;7.70;;;;;;;;;;4994799;28;20183;-56
2022/01/13 08:14:35;;;;;;;15.55;7.70;;;;;;;;;;5006934;28;20249;-57
2022/01/13 08:17:02;;;;;;;18.70;10.63;;;;;;;;;;4996007;28;20184;-57
2022/01/13 08:19:46;;;;;;;22.73;9.93;;;;;;;;;;4987198;28;20192;-57
2022/01/13 08:22:12;;;;;;;10.48;7.35;;;;;;;;;;4999976;28;20169;-57
2022/01/13 08:24:38;;;;;;;7.80;6.03;;;;;;;;;;5001765;28;20562;-57
2022/01/13 08:27:03;;;;;;;14.25;7.72;;;;;;;;;;5002929;28;20190;-57
2022/01/13 08:29:29;;;;;;;14.52;8.15;;;;;;;;;;4997654;28;20623;-57
2022/01/13 08:31:54;;;;;;;8.30;6.68;;;;;;;;;;4996515;28;20970;-57
2022/01/13 08:34:19;;;;;;;7.43;5.43;;;;;;;;;;5000331;28;20241;-57
2022/01/13 08:36:45;;;;;;;8.88;6.28;;;;;;;;;;5001303;28;20198;-57
2022/01/13 08:39:10;;;;;;;10.27;5.65;;;;;;;;;;4999701;28;20262;-58
2022/01/13 08:41:36;;;;;;;7.13;5.70;;;;;;;;;;4979051;28;20187;-57
2022/01/13 08:44:01;;;;;;;8.65;6.35;;;;;;;;;;4979994;28;20192;-57
2022/01/13 08:46:26;;;;;;;8.55;6.28;;;;;;;;;;4993658;28;20186;-57
2022/01/13 08:48:52;;;;;;;10.85;6.75;;;;;;;;;;5009191;28;20218;-57
2022/01/13 08:51:18;;;;;;;9.23;5.60;;;;;;;;;;5008850;28;20185;-59
2022/01/13 08:53:44;;;;;;;8.05;5.60;;;;;;;;;;5008943;28;20219;-57
2022/01/13 08:56:09;;;;;;;8.70;5.72;;;;;;;;;;5000275;28;20191;-57
2022/01/13 08:58:35;;;;;;;11.38;6.78;;;;;;;;;;4990547;28;20184;-57
2022/01/13 09:01:00;;;;;;;10.15;6.72;;;;;;;;;;4989125;28;20177;-57
2022/01/13 09:03:25;;;;;;;11.52;7.30;;;;;;;;;;4979365;28;20179;-57
2022/01/13 09:05:50;;;;;;;8.73;6.25;;;;;;;;;;4980975;28;20194;-57
2022/01/13 09:08:16;;;;;;;12.05;7.72;;;;;;;;;;4995265;28;20191;-57
2022/01/13 09:10:42;;;;;;;8.63;6.47;;;;;;;;;;4992484;28;20676;-56
2022/01/13 09:13:08;;;;;;;6.20;4.78;;;;;;;;;;5006344;28;20602;-57
2022/01/13 09:15:39;;;;;;;5.88;5.13;;;;;;;;;;5001539;28;20194;-58
2022/01/13 09:18:16;;;;;;;9.63;6.90;;;;;;;;;;5003080;28;20171;-57
2022/01/13 09:20:41;;;;;;;10.52;7.43;;;;;;;;;;4991757;28;20171;-56
2022/01/13 09:23:07;;;;;;;17.08;10.75;;;;;;;;;;4979889;28;20688;-58
2022/01/13 09:25:33;;;;;;;15.15;9.00;;;;;;;;;;4998582;28;20183;-57
2022/01/13 09:27:58;;;;;;;16.38;9.70;;;;;;;;;;4999350;28;20246;-57
2022/01/13 09:30:23;;;;;;;13.70;9.65;;;;;;;;;;4990792;28;21066;-56
2022/01/13 09:32:49;;;;;;;17.45;9.98;;;;;;;;;;5001233;28;20588;-57
2022/01/13 09:35:15;;;;;;;17.73;10.68;;;;;;;;;;4992203;28;20238;-58
2022/01/13 09:37:40;;;;;;;15.50;9.77;;;;;;;;;;4998579;28;20732;-57
2022/01/13 09:40:09;;;;;;;21.02;10.77;;;;;;;;;;5001203;28;20569;-57
2022/01/13 09:42:35;;;;;;;17.95;9.48;;;;;;;;;;4993095;28;20230;-57
2022/01/13 09:45:00;;;;;;;17.60;9.60;;;;;;;;;;4978024;28;20180;-57
2022/01/13 09:47:26;;;;;;;15.20;7.57;;;;;;;;;;4979416;28;20254;-57
2022/01/13 09:49:51;;;;;;;16.38;10.40;;;;;;;;;;4993002;28;20282;-57
2022/01/13 09:52:19;;;;;;;21.23;11.45;;;;;;;;;;4993336;28;20180;-58
2022/01/13 09:54:44;;;;;;;20.75;11.48;;;;;;;;;;5000759;28;20223;-57
2022/01/13 09:57:09;;;;;;;15.57;8.82;;;;;;;;;;4998012;28;20551;-58
2022/01/13 09:59:35;;;;;;;19.15;11.90;;;;;;;;;;4999735;28;20179;-58
2022/01/13 10:02:00;;;;;;;17.77;10.82;;;;;;;;;;4996695;28;20263;-57
2022/01/13 10:04:42;;;;;;;16.55;10.00;;;;;;;;;;4986859;28;20202;-58
2022/01/13 10:07:07;;;;;;;14.82;10.13;;;;;;;;;;4997687;28;20195;-58
2022/01/13 10:09:51;;;;;;;32.15;15.40;;;;;;;;;;5001206;28;20217;-56
2022/01/13 10:12:22;;;;;;;23.92;14.00;;;;;;;;;;5005197;28;20187;-57
2022/01/13 10:17:22;;;;;;;13.73;9.90;;;;;;;;;;4997255;28;20194;-58
2022/01/13 10:19:49;;;;;;;20.38;12.02;;;;;;;;;;4990595;28;20179;-57
2022/01/13 10:22:16;;;;;;;16.27;11.05;;;;;;;;;;4992606;28;20182;-57
2022/01/13 10:24:43;;;;;;;13.10;11.02;;;;;;;;;;4994919;28;20192;-57
2022/01/13 10:27:13;;;;;;;13.48;9.82;;;;;;;;;;4976915;28;20271;-57
2022/01/13 10:29:40;;;;;;;16.05;11.40;;;;;;;;;;4998434;28;20241;-57
2022/01/13 10:32:06;;;;;;;12.40;8.40;;;;;;;;;;4999154;28;20184;-57
2022/01/13 10:34:32;;;;;;;10.52;7.88;;;;;;;;;;4995184;28;20218;-57
2022/01/13 10:37:16;;;;;;;22.60;14.55;;;;;;;;;;5003115;28;20993;-57
2022/01/13 10:40:02;;;;;;;15.90;11.07;;;;;;;;;;5004615;28;20229;-57
2022/01/13 10:45:09;;;;;;;10.82;8.73;;;;;;;;;;5006897;28;20608;-56
2022/01/13 10:47:35;;;;;;;11.32;8.98;;;;;;;;;;4976750;28;20183;-57
2022/01/13 10:50:11;;;;;;;11.15;6.88;;;;;;;;;;4978315;28;20892;-59
2022/01/13 10:52:36;;;;;;;7.38;6.60;;;;;;;;;;5000525;28;20171;-59
2022/01/13 10:55:08;;;;;;;11.50;7.22;;;;;;;;;;4997557;28;20199;-59
2022/01/13 10:57:34;;;;;;;14.00;9.60;;;;;;;;;;5000829;28;20694;-56
2022/01/13 10:59:59;;;;;;;11.32;8.65;;;;;;;;;;5000753;28;20617;-57
2022/01/13 11:02:25;;;;;;;11.25;7.43;;;;;;;;;;4997911;28;20176;-57
2022/01/13 11:04:50;;;;;;;19.88;10.88;;;;;;;;;;4999028;28;20661;-57
2022/01/13 11:07:17;;;;;;;22.02;11.77;;;;;;;;;;4996080;28;20240;-57
2022/01/13 11:09:51;;;;;;;52.47;25.42;;;;;;;;;;4996401;28;20253;-58
2022/01/13 11:12:16;;;;;;;20.05;11.52;;;;;;;;;;4999426;28;20248;-56
2022/01/13 11:14:43;;;;;;;11.38;8.68;;;;;;;;;;5004350;28;20206;-57
2022/01/13 11:17:10;;;;;;;13.93;10.50;;;;;;;;;;5013058;28;20239;-57
2022/01/13 11:19:36;;;;;;;15.70;11.85;;;;;;;;;;4990154;28;20240;-57
2022/01/13 11:22:02;;;;;;;14.20;10.68;;;;;;;;;;4993263;28;20175;-57
2022/01/13 11:24:27;;;;;;;12.75;8.98;;;;;;;;;;4992472;28;20266;-57
2022/01/13 11:26:53;;;;;;;25.63;15.65;;;;;;;;;;5013252;28;20182;-57
2022/01/13 11:29:19;;;;;;;16.95;11.00;;;;;;;;;;4996976;28;20653;-56
2022/01/13 11:31:45;;;;;;;16.00;9.60;;;;;;;;;;4996948;28;20172;-57
2022/01/13 11:34:10;;;;;;;14.25;8.25;;;;;;;;;;5000478;28;20195;-58
2022/01/13 11:36:37;;;;;;;13.48;8.70;;;;;;;;;;4996896;28;20178;-57
2022/01/13 11:39:06;;;;;;;14.48;8.68;;;;;;;;;;4999633;28;20207;-58
2022/01/13 11:41:31;;;;;;;16.65;10.25;;;;;;;;;;4999075;28;20167;-57
2022/01/13 11:44:20;;;;;;;15.18;9.43;;;;;;;;;;4993720;28;20179;-57
2022/01/13 11:46:47;;;;;;;14.95;10.07;;;;;;;;;;5002224;28;20186;-58
2022/01/13 11:49:19;;;;;;;17.88;11.50;;;;;;;;;;4989875;28;20222;-58
2022/01/13 11:51:57;;;;;;;11.88;8.40;;;;;;;;;;4995967;28;20666;-58
2022/01/13 11:54:27;;;;;;;14.50;9.48;;;;;;;;;;4998038;28;20734;-57
2022/01/13 11:57:11;;;;;;;15.13;9.40;;;;;;;;;;4993332;28;20187;-57
2022/01/13 11:59:37;;;;;;;16.23;9.98;;;;;;;;;;5000652;28;20176;-57
2022/01/13 12:02:21;;;;;;;16.95;11.45;;;;;;;;;;5001612;28;20257;-57
2022/01/13 12:05:04;;;;;;;26.58;15.07;;;;;;;;;;5001710;28;20180;-56
2022/01/13 12:07:34;;;;;;;17.30;11.63;;;;;;;;;;4992442;28;20214;-57
2022/01/13 12:10:00;;;;;;;18.45;11.48;;;;;;;;;;5003797;28;20179;-57
2022/01/13 12:12:29;;;;;;;19.30;11.20;;;;;;;;;;4995352;28;20186;-57
2022/01/13 12:15:12;;;;;;;15.98;10.80;;;;;;;;;;4997492;28;20250;-57
2022/01/13 12:17:48;;;;;;;20.30;13.38;;;;;;;;;;5001739;28;20233;-57
2022/01/13 12:20:19;;;;;;;22.42;14.23;;;;;;;;;;4996583;28;20343;-58
2022/01/13 12:22:54;;;;;;;18.83;11.23;;;;;;;;;;5000225;28;20183;-58
2022/01/13 12:25:20;;;;;;;19.08;12.05;;;;;;;;;;5002564;28;20182;-57
2022/01/13 12:27:47;;;;;;;17.10;11.10;;;;;;;;;;5000363;28;20183;-57
2022/01/13 12:30:12;;;;;;;12.30;8.68;;;;;;;;;;4998585;28;20621;-57
2022/01/13 12:32:42;;;;;;;18.88;13.68;;;;;;;;;;4999494;28;20206;-56
2022/01/13 12:35:09;;;;;;;19.40;11.43;;;;;;;;;;5000366;28;20969;-57
2022/01/13 12:37:38;;;;;;;20.17;13.25;;;;;;;;;;5004100;28;20178;-57
2022/01/13 12:40:11;;;;;;;18.38;10.13;;;;;;;;;;5001347;28;20174;-57
2022/01/13 12:42:39;;;;;;;19.67;11.50;;;;;;;;;;4991244;28;20263;-57
2022/01/13 12:47:53;;;;;;;13.82;9.70;;;;;;;;;;4993138;28;20187;-58
2022/01/13 12:50:20;;;;;;;15.00;9.60;;;;;;;;;;5001500;28;20667;-58
2022/01/13 12:52:46;;;;;;;15.23;10.07;;;;;;;;;;4997048;28;20182;-56
2022/01/13 12:55:12;;;;;;;19.33;11.57;;;;;;;;;;4999018;28;20175;-57
2022/01/13 12:57:48;;;;;;;16.45;10.55;;;;;;;;;;5000461;28;20175;-59
2022/01/13 13:00:14;;;;;;;18.08;10.57;;;;;;;;;;5001665;28;20171;-60
2022/01/13 13:02:53;;;;;;;14.07;9.18;;;;;;;;;;5007891;28;20761;-56
2022/01/13 13:05:32;;;;;;;12.10;8.85;;;;;;;;;;4996217;28;20183;-57
2022/01/13 13:07:58;;;;;;;13.13;9.18;;;;;;;;;;4996569;28;20263;-57
2022/01/13 13:10:23;;;;;;;13.18;8.88;;;;;;;;;;4995716;28;20258;-57
2022/01/13 13:12:52;;;;;;;11.05;7.72;;;;;;;;;;5003228;28;20211;-57
2022/01/13 13:17:45;;;;;;;13.38;9.60;;;;;;;;;;4999840;28;20183;-58
2022/01/13 13:20:30;;;;;;;14.18;9.05;;;;;;;;;;5004122;28;20547;-57
2022/01/13 13:22:58;;;;;;;13.35;9.57;;;;;;;;;;4996829;28;20203;-57
2022/01/13 13:25:30;;;;;;;14.20;8.85;;;;;;;;;;5000192;28;20716;-58
2022/01/13 13:27:56;;;;;;;13.00;9.05;;;;;;;;;;5007306;28;20183;-58
2022/01/13 13:30:21;;;;;;;15.32;11.15;;;;;;;;;;4996590;28;20233;-57
2022/01/13 13:32:48;;;;;;;29.02;17.88;;;;;;;;;;4994045;28;20184;-57
2022/01/13 13:35:14;;;;;;;19.80;12.25;;;;;;;;;;4981674;28;20203;-57
2022/01/13 13:37:45;;;;;;;21.38;14.00;;;;;;;;;;4979441;28;20207;-57
2022/01/13 13:40:23;;;;;;;14.40;9.55;;;;;;;;;;5000959;28;20739;-56
2022/01/13 13:43:03;;;;;;;12.25;9.23;;;;;;;;;;5001198;28;20225;-58
2022/01/13 13:45:29;;;;;;;12.85;8.48;;;;;;;;;;4992601;28;20688;-58
2022/01/13 13:47:56;;;;;;;12.48;7.53;;;;;;;;;;4988817;28;20187;-57
2022/01/13 13:50:22;;;;;;;14.15;10.02;;;;;;;;;;4988685;28;20720;-57
2022/01/13 13:52:47;;;;;;;14.68;10.02;;;;;;;;;;5001085;28;20233;-57
2022/01/13 13:55:12;;;;;;;13.30;9.43;;;;;;;;;;5000795;28;20197;-57
2022/01/13 13:57:39;;;;;;;12.57;9.77;;;;;;;;;;4997414;28;20211;-57
2022/01/13 14:00:08;;;;;;;15.18;10.18;;;;;;;;;;4999022;28;20163;-57
2022/01/13 14:02:36;;;;;;;8.98;7.50;;;;;;;;;;5000038;28;20179;-57
2022/01/13 14:05:04;;;;;;;17.50;10.70;;;;;;;;;;4997389;28;20234;-57
2022/01/13 14:07:30;;;;;;;14.13;9.05;;;;;;;;;;5005518;28;20187;-58
2022/01/13 14:09:59;;;;;;;10.60;8.32;;;;;;;;;;5003397;28;20580;-58
2022/01/13 14:12:29;;;;;;;12.00;8.10;;;;;;;;;;5001160;28;20665;-58
2022/01/13 14:14:54;;;;;;;10.70;8.20;;;;;;;;;;5001964;28;20633;-58
2022/01/13 14:17:34;;;;;;;14.48;7.60;;;;;;;;;;4981905;28;20191;-58
2022/01/13 14:20:00;;;;;;;11.52;7.40;;;;;;;;;;4997238;28;20159;-57
2022/01/13 14:22:25;;;;;;;12.50;7.65;;;;;;;;;;4999131;28;20672;-57
2022/01/13 14:24:52;;;;;;;13.52;7.82;;;;;;;;;;4990935;28;20187;-57
2022/01/13 14:27:17;;;;;;;9.23;7.05;;;;;;;;;;4998730;28;20222;-57
2022/01/13 14:29:49;;;;;;;10.68;7.35;;;;;;;;;;4999088;28;20186;-58
2022/01/13 14:32:14;;;;;;;19.08;11.93;;;;;;;;;;5001476;28;20187;-58
2022/01/13 14:34:46;;;;;;;57.80;29.45;;;;;;;;;;4990436;28;20202;-56
2022/01/13 14:37:12;;;;;;;13.73;8.30;;;;;;;;;;5001670;28;20225;-56
2022/01/13 14:39:37;;;;;;;10.82;7.50;;;;;;;;;;4996049;28;20875;-57
2022/01/13 14:42:02;;;;;;;11.93;7.55;;;;;;;;;;4997912;28;20714;-56
2022/01/13 14:44:29;;;;;;;12.48;7.38;;;;;;;;;;5001890;28;20187;-57
2022/01/13 14:47:04;;;;;;;10.02;6.80;;;;;;;;;;4998676;28;20191;-57
2022/01/13 14:49:35;;;;;;;7.30;6.55;;;;;;;;;;4995858;28;20293;-57
2022/01/13 14:52:03;;;;;;;11.10;7.80;;;;;;;;;;4997070;28;20275;-57
2022/01/13 14:54:28;;;;;;;10.05;7.25;;;;;;;;;;5000515;28;20290;-56
2022/01/13 14:56:53;;;;;;;17.85;9.52;;;;;;;;;;5023476;28;20323;-57